| time (UTC) | temp F | wind direction | speed MPH | gust MPH | rain 1hr in | rain 24hr in | rain mn in | humidity % | barometer mb |
| 20260505181004 | 60 | 345 | 2.0 | 9.0 | 0.00 | 0.02 | 0.00 | 57 | 1012.1 |
| 20260505180005 | 61 | 354 | 5.0 | 7.0 | 0.00 | 0.02 | 0.00 | 55 | 1012.1 |
| 20260505175505 | 61 | 341 | 3.0 | 9.0 | 0.00 | 0.02 | 0.00 | 55 | 1012.1 |
| 20260505173505 | 62 | 10 | 5.0 | 10.0 | 0.00 | 0.02 | 0.00 | 53 | 1012.1 |
| 20260505173005 | 62 | 358 | 5.0 | 10.0 | 0.00 | 0.02 | 0.00 | 53 | 1012.2 |
| 20260505172504 | 62 | 4 | 4.0 | 10.0 | 0.00 | 0.02 | 0.00 | 52 | 1012.1 |
| 20260505172004 | 62 | 7 | 5.0 | 10.0 | 0.00 | 0.02 | 0.00 | 50 | 1012.2 |
| 20260505171505 | 63 | 339 | 5.0 | 9.0 | 0.00 | 0.02 | 0.00 | 51 | 1012.2 |
| 20260505171005 | 63 | 13 | 3.0 | 9.0 | 0.00 | 0.02 | 0.00 | 51 | 1012.2 |
| 20260505170504 | 63 | 345 | 3.0 | 13.0 | 0.00 | 0.02 | 0.00 | 51 | 1012.2 |
| 20260505165504 | 63 | 330 | 5.0 | 9.0 | 0.00 | 0.02 | 0.00 | 51 | 1012.2 |
| 20260505165004 | 63 | 343 | 6.0 | 9.0 | 0.00 | 0.02 | 0.00 | 48 | 1012.3 |
| 20260505163504 | 63 | 319 | 5.0 | 10.0 | 0.00 | 0.02 | 0.00 | 50 | 1012.3 |
| 20260505162505 | 63 | 25 | 4.0 | 10.0 | 0.00 | 0.02 | 0.00 | 50 | 1012.2 |
| 20260505161504 | 63 | 6 | 4.0 | 10.0 | 0.00 | 0.03 | 0.00 | 51 | 1012.3 |
| 20260505160505 | 63 | 331 | 6.0 | 10.0 | 0.00 | 0.03 | 0.00 | 50 | 1012.2 |
| 20260505153005 | 63 | 353 | 5.0 | 12.0 | 0.00 | 0.04 | 0.00 | 51 | 1012.4 |
| 20260505152504 | 64 | 349 | 7.0 | 12.0 | 0.00 | 0.04 | 0.00 | 49 | 1012.4 |
| 20260505140504 | 62 | 345 | 7.0 | 13.0 | 0.00 | 0.04 | 0.00 | 55 | 1012.8 |
| 20260505124505 | 63 | 353 | 6.0 | 10.0 | 0.00 | 0.04 | 0.00 | 57 | 1013.2 |
| 20260505124005 | 64 | 347 | 5.0 | 10.0 | 0.00 | 0.04 | 0.00 | 58 | 1013.2 |
| 20260505122505 | 64 | 356 | 3.0 | 13.0 | 0.00 | 0.04 | 0.00 | 60 | 1013.1 |
| 20260505121504 | 63 | 340 | 5.0 | 12.0 | 0.00 | 0.04 | 0.00 | 59 | 1013.2 |
| 20260505120005 | 63 | 13 | 5.0 | 12.0 | 0.00 | 0.04 | 0.00 | 58 | 1013.3 |
| 20260505115005 | 63 | 342 | 7.0 | 13.0 | 0.00 | 0.04 | 0.00 | 60 | 1013.2 |
| 20260505114004 | 63 | 350 | 4.0 | 12.0 | 0.00 | 0.04 | 0.00 | 59 | 1013.2 |
| 20260505113504 | 63 | 1 | 6.0 | 14.0 | 0.00 | 0.04 | 0.00 | 60 | 1013.2 |
| 20260505113005 | 63 | 338 | 7.0 | 14.0 | 0.00 | 0.04 | 0.00 | 61 | 1013.3 |
| 20260505112504 | 63 | 357 | 5.0 | 9.0 | 0.00 | 0.04 | 0.00 | 62 | 1013.3 |
| 20260505111505 | 61 | 329 | 5.0 | 9.0 | 0.00 | 0.04 | 0.00 | 63 | 1013.3 |
| 20260505111004 | 61 | 330 | 5.0 | 12.0 | 0.00 | 0.04 | 0.00 | 63 | 1013.3 |
| 20260505101004 | 57 | 25 | 3.0 | 8.0 | 0.00 | 0.04 | 0.00 | 70 | 1013.7 |
| 20260505100004 | 57 | 8 | 5.0 | 9.0 | 0.00 | 0.04 | 0.00 | 70 | 1013.7 |
| 20260505094504 | 57 | 350 | 4.0 | 9.0 | 0.00 | 0.04 | 0.00 | 73 | 1013.7 |
| 20260505092504 | 57 | 354 | 4.0 | 7.0 | 0.00 | 0.04 | 0.00 | 74 | 1013.8 |
| 20260505092005 | 57 | 6 | 2.0 | 7.0 | 0.00 | 0.04 | 0.00 | 74 | 1013.8 |
| 20260505090505 | 57 | 16 | 4.0 | 10.0 | 0.00 | 0.04 | 0.00 | 73 | 1013.7 |
| 20260505085004 | 57 | 355 | 5.0 | 10.0 | 0.00 | 0.04 | 0.00 | 74 | 1013.8 |
| 20260505084505 | 57 | 329 | 3.0 | 8.0 | 0.00 | 0.04 | 0.00 | 76 | 1013.8 |
| 20260505083504 | 57 | 328 | 5.0 | 8.0 | 0.00 | 0.04 | 0.00 | 77 | 1014.0 |
| 20260505082005 | 55 | 19 | 3.0 | 8.0 | 0.00 | 0.04 | 0.00 | 81 | 1014.0 |
| 20260505081505 | 55 | 349 | 5.0 | 8.0 | 0.00 | 0.04 | 0.00 | 82 | 1014.0 |
| 20260505081004 | 55 | 12 | 3.0 | 9.0 | 0.00 | 0.04 | 0.00 | 81 | 1014.0 |
| 20260505080505 | 55 | 356 | 3.0 | 9.0 | 0.00 | 0.04 | 0.00 | 82 | 1014.0 |
| 20260505080005 | 55 | 332 | 4.0 | 8.0 | 0.00 | 0.04 | 0.00 | 83 | 1014.0 |
| 20260505075504 | 55 | 339 | 5.0 | 8.0 | 0.00 | 0.04 | 0.00 | 85 | 1013.9 |
| 20260505075004 | 54 | 343 | 3.0 | 8.0 | 0.00 | 0.04 | 0.00 | 87 | 1014.0 |
| 20260505074504 | 54 | 347 | 4.0 | 8.0 | 0.00 | 0.04 | 0.00 | 88 | 1014.0 |
| 20260505073504 | 53 | 349 | 3.0 | 6.0 | 0.00 | 0.04 | 0.00 | 88 | 1013.9 |
| 20260505073005 | 53 | 20 | 3.0 | 7.0 | 0.00 | 0.04 | 0.00 | 90 | 1013.9 |
| 20260505072005 | 52 | 354 | 3.0 | 6.0 | 0.00 | 0.04 | 0.00 | 90 | 1014.0 |
| 20260505071504 | 52 | 341 | 3.0 | 7.0 | 0.00 | 0.04 | 0.00 | 91 | 1014.0 |
| 20260505070504 | 52 | 352 | 3.0 | 9.0 | 0.00 | 0.04 | 0.00 | 92 | 1013.9 |
| 20260505070005 | 52 | 22 | 3.0 | 9.0 | 0.00 | 0.04 | 0.00 | 92 | 1013.9 |
| 20260505065005 | 51 | 353 | 2.0 | 6.0 | 0.00 | 0.04 | 0.00 | 93 | 1014.1 |
| 20260505064005 | 51 | 350 | 3.0 | 7.0 | 0.00 | 0.04 | 0.00 | 93 | 1014.1 |
| 20260505063505 | 51 | 340 | 3.0 | 7.0 | 0.00 | 0.04 | 0.00 | 93 | 1014.1 |
| 20260505062504 | 51 | 357 | 2.0 | 5.0 | 0.00 | 0.04 | 0.00 | 93 | 1014.0 |
| 20260505060504 | 50 | 348 | 2.0 | 6.0 | 0.00 | 0.04 | 0.00 | 93 | 1013.8 |
| 20260505055505 | 50 | 337 | 3.0 | 6.0 | 0.00 | 0.04 | 0.00 | 94 | 1013.7 |
| 20260505055005 | 50 | 337 | 2.0 | 6.0 | 0.00 | 0.04 | 0.00 | 94 | 1013.7 |
| 20260505054504 | 50 | 344 | 3.0 | 6.0 | 0.00 | 0.04 | 0.00 | 94 | 1013.7 |
| 20260505053504 | 50 | 331 | 4.0 | 6.0 | 0.00 | 0.04 | 0.00 | 94 | 1013.8 |
| 20260505053004 | 50 | 329 | 2.0 | 6.0 | 0.00 | 0.04 | 0.00 | 93 | 1013.8 |
| 20260505051504 | 50 | 349 | 3.0 | 6.0 | 0.00 | 0.04 | 0.00 | 93 | 1013.6 |
| 20260505051005 | 50 | 354 | 3.0 | 6.0 | 0.00 | 0.04 | 0.00 | 93 | 1013.6 |
| 20260505035005 | 52 | 4 | 2.0 | 5.0 | 0.00 | 0.04 | 0.00 | 93 | 1013.7 |
| 20260505034504 | 52 | 4 | 1.0 | 3.0 | 0.00 | 0.04 | 0.00 | 92 | 1013.7 |
| 20260505033504 | 52 | 1 | 0.0 | 3.0 | 0.00 | 0.04 | 0.00 | 92 | 1013.7 |
| 20260505033004 | 52 | 354 | 2.0 | 3.0 | 0.00 | 0.04 | 0.00 | 92 | 1013.7 |
| 20260505032505 | 52 | 336 | 2.0 | 3.0 | 0.00 | 0.04 | 0.00 | 92 | 1013.7 |
| 20260505032004 | 52 | 334 | 3.0 | 3.0 | 0.00 | 0.04 | 0.00 | 92 | 1013.7 |
| 20260505025005 | 52 | 342 | 2.0 | 5.0 | 0.00 | 0.04 | 0.00 | 91 | 1013.7 |
| 20260505024005 | 53 | 339 | 3.0 | 5.0 | 0.00 | 0.04 | 0.00 | 91 | 1013.6 |
| 20260505023504 | 53 | 335 | 2.0 | 5.0 | 0.00 | 0.04 | 0.00 | 91 | 1013.7 |
| 20260505021005 | 54 | 338 | 2.0 | 3.0 | 0.00 | 0.04 | 0.00 | 90 | 1013.8 |
| 20260505020505 | 54 | 0 | 1.0 | 3.0 | 0.00 | 0.04 | 0.00 | 90 | 1013.8 |
| 20260505020005 | 54 | 355 | 1.0 | 2.0 | 0.00 | 0.04 | 0.00 | 89 | 1013.9 |
| 20260505015005 | 54 | 355 | 1.0 | 3.0 | 0.00 | 0.04 | 0.00 | 89 | 1014.0 |
| 20260505013505 | 54 | 38 | 1.0 | 3.0 | 0.00 | 0.04 | 0.00 | 89 | 1014.0 |
| 20260505013004 | 54 | 40 | 0.0 | 3.0 | 0.00 | 0.04 | 0.00 | 89 | 1014.1 |
| 20260505012505 | 54 | 24 | 1.0 | 3.0 | 0.00 | 0.04 | 0.00 | 89 | 1014.2 |
| 20260505005505 | 54 | 355 | 1.0 | 3.0 | 0.00 | 0.04 | 0.00 | 89 | 1014.2 |
| 20260505005005 | 54 | 337 | 2.0 | 3.0 | 0.00 | 0.04 | 0.00 | 89 | 1014.3 |
| 20260505004005 | 54 | 350 | 1.0 | 5.0 | 0.00 | 0.04 | 0.00 | 88 | 1014.4 |
| 20260505003504 | 54 | 342 | 2.0 | 5.0 | 0.00 | 0.04 | 0.00 | 88 | 1014.4 |
| 20260505003004 | 54 | 4 | 1.0 | 5.0 | 0.00 | 0.04 | 0.00 | 88 | 1014.3 |
| 20260505002505 | 54 | 18 | 2.0 | 5.0 | 0.00 | 0.04 | 0.00 | 88 | 1014.3 |
| 20260505001504 | 54 | 11 | 2.0 | 3.0 | 0.00 | 0.04 | 0.00 | 88 | 1014.3 |
| 20260505000004 | 54 | 43 | 1.0 | 3.0 | 0.00 | 0.04 | 0.00 | 89 | 1014.4 |
| 20260504233504 | 54 | 52 | 2.0 | 5.0 | 0.00 | 0.04 | 0.00 | 91 | 1014.5 |
| 20260504233005 | 54 | 35 | 1.0 | 3.0 | 0.00 | 0.04 | 0.00 | 91 | 1014.5 |
| 20260504231005 | 54 | 46 | 1.0 | 5.0 | 0.00 | 0.04 | 0.00 | 91 | 1014.4 |
| 20260504230505 | 54 | 5 | 2.0 | 5.0 | 0.00 | 0.04 | 0.00 | 91 | 1014.3 |
| 20260504230005 | 54 | 5 | 2.0 | 3.0 | 0.00 | 0.04 | 0.00 | 91 | 1014.3 |
| 20260504225505 | 54 | 12 | 1.0 | 3.0 | 0.00 | 0.04 | 0.04 | 91 | 1014.4 |
| 20260504224505 | 54 | 30 | 2.0 | 5.0 | 0.00 | 0.04 | 0.04 | 91 | 1014.4 |
| 20260504223505 | 55 | 335 | 2.0 | 5.0 | 0.00 | 0.04 | 0.04 | 91 | 1014.4 |
| 20260504222505 | 55 | 325 | 2.0 | 5.0 | 0.00 | 0.04 | 0.04 | 91 | 1014.5 |
| 20260504221004 | 55 | 325 | 3.0 | 5.0 | 0.00 | 0.04 | 0.04 | 91 | 1014.5 |
| 20260504220505 | 55 | 332 | 3.0 | 5.0 | 0.00 | 0.04 | 0.04 | 91 | 1014.5 |
| 20260504220004 | 55 | 345 | 2.0 | 5.0 | 0.00 | 0.04 | 0.04 | 91 | 1014.5 |
| 20260504215004 | 55 | 347 | 3.0 | 5.0 | 0.00 | 0.04 | 0.04 | 91 | 1014.6 |
| 20260504214504 | 55 | 341 | 3.0 | 6.0 | 0.00 | 0.04 | 0.04 | 91 | 1014.6 |
| 20260504214005 | 55 | 349 | 2.0 | 6.0 | 0.00 | 0.04 | 0.04 | 91 | 1014.6 |
| 20260504212504 | 55 | 344 | 3.0 | 6.0 | 0.00 | 0.04 | 0.04 | 91 | 1014.6 |
| 20260504212004 | 55 | 353 | 3.0 | 6.0 | 0.01 | 0.04 | 0.04 | 91 | 1014.6 |
| 20260504211005 | 55 | 344 | 3.0 | 8.0 | 0.01 | 0.04 | 0.04 | 91 | 1014.6 |
| 20260504210505 | 56 | 350 | 5.0 | 8.0 | 0.02 | 0.04 | 0.04 | 91 | 1014.7 |
| 20260504205505 | 56 | 344 | 4.0 | 7.0 | 0.02 | 0.04 | 0.04 | 91 | 1014.7 |
| 20260504204505 | 56 | 355 | 4.0 | 9.0 | 0.02 | 0.04 | 0.04 | 91 | 1014.7 |
| 20260504203505 | 56 | 348 | 2.0 | 3.0 | 0.02 | 0.04 | 0.04 | 91 | 1014.6 |
| 20260504203004 | 56 | 336 | 2.0 | 5.0 | 0.02 | 0.04 | 0.04 | 91 | 1014.5 |
| 20260504202005 | 56 | 331 | 2.0 | 3.0 | 0.01 | 0.03 | 0.03 | 91 | 1014.5 |
| 20260504200505 | 57 | 353 | 2.0 | 3.0 | 0.01 | 0.02 | 0.02 | 90 | 1014.4 |
| 20260504200005 | 57 | 352 | 2.0 | 3.0 | 0.01 | 0.02 | 0.02 | 89 | 1014.4 |
| 20260504195504 | 57 | 19 | 1.0 | 3.0 | 0.01 | 0.02 | 0.02 | 89 | 1014.4 |
| 20260504195005 | 57 | 6 | 2.0 | 5.0 | 0.01 | 0.02 | 0.02 | 89 | 1014.3 |
| 20260504194504 | 57 | 13 | 2.0 | 7.0 | 0.01 | 0.02 | 0.02 | 89 | 1014.3 |
| 20260504193005 | 57 | 17 | 0.0 | 2.0 | 0.01 | 0.02 | 0.02 | 89 | 1014.2 |
| 20260504192504 | 57 | 17 | 0.0 | 2.0 | 0.01 | 0.02 | 0.02 | 89 | 1014.2 |
| 20260504192005 | 57 | 17 | 1.0 | 2.0 | 0.01 | 0.02 | 0.02 | 89 | 1014.2 |
| 20260504190505 | 58 | 92 | 2.0 | 3.0 | 0.00 | 0.02 | 0.02 | 88 | 1014.0 |
| 20260504185004 | 58 | 62 | 2.0 | 5.0 | 0.00 | 0.02 | 0.02 | 87 | 1013.9 |
| 20260504183005 | 58 | 30 | 1.0 | 3.0 | 0.00 | 0.02 | 0.02 | 87 | 1013.9 |
| 20260504181504 | 58 | 39 | 2.0 | 6.0 | 0.00 | 0.02 | 0.02 | 87 | 1013.8 |